createdAt,value
2022-10-11T00:02:06.179Z,96673.03
2022-10-11T00:04:34.218Z,96667.72
2022-10-11T00:07:03.457Z,96673.81
2022-10-11T00:09:31.476Z,96675.66
2022-10-11T00:11:59.352Z,96674.44
2022-10-11T00:14:27.700Z,96673.25
2022-10-11T00:16:55.755Z,96673.25
2022-10-11T00:19:23.932Z,96675.16
2022-10-11T00:21:51.823Z,96680.03
2022-10-11T00:24:21.100Z,96679.81
2022-10-11T00:26:49.003Z,96677.25
2022-10-11T00:29:16.922Z,96687.31
2022-10-11T00:31:44.884Z,96689.34
2022-10-11T00:34:13.386Z,96687.72
2022-10-11T00:36:41.333Z,96694.38
2022-10-11T00:39:09.275Z,96687.13
2022-10-11T00:41:38.586Z,96695.59
2022-10-11T00:44:11.531Z,96701.84
2022-10-11T00:46:39.937Z,96705.25
2022-10-11T00:49:14.725Z,96703.16
2022-10-11T00:51:46.788Z,96694.31
2022-10-11T00:54:17.554Z,96704.16
2022-10-11T00:56:50.614Z,96710.03
2022-10-11T00:59:25.061Z,96716.34
2022-10-11T01:01:53.283Z,96728.13
2022-10-11T01:04:21.729Z,96719.28
2022-10-11T01:06:50.837Z,96727.19
2022-10-11T01:09:20.315Z,96732.09
2022-10-11T01:11:50.640Z,96734.53
2022-10-11T01:14:40.800Z,96740.69
2022-10-11T01:17:15.713Z,96731.97
2022-10-11T01:19:56.337Z,96736.59
2022-10-11T01:22:44.560Z,96731.66
2022-10-11T01:25:19.153Z,96729.72
2022-10-11T01:28:01.085Z,96734.06
2022-10-11T01:30:31.022Z,96739.31
2022-10-11T01:33:08.534Z,96740.34
2022-10-11T01:35:40.477Z,96749.03
2022-10-11T01:38:12.096Z,96753.53
2022-10-11T01:40:45.422Z,96747.00
2022-10-11T01:43:14.702Z,96752.31
2022-10-11T01:45:44.962Z,96752.59
2022-10-11T01:48:15.188Z,96752.34
2022-10-11T01:50:45.906Z,96760.63
2022-10-11T01:53:38.879Z,96762.56
2022-10-11T01:56:14.446Z,96757.53
2022-10-11T01:58:53.160Z,96774.03
2022-10-11T02:01:28.812Z,96773.47
2022-10-11T02:04:03.109Z,96776.91
2022-10-11T02:06:34.231Z,96772.44
2022-10-11T02:09:08.096Z,96772.69
2022-10-11T02:11:36.438Z,96774.78
2022-10-11T02:14:09.461Z,96776.19
2022-10-11T02:16:41.881Z,96777.59
2022-10-11T02:19:10.441Z,96777.38
2022-10-11T02:21:40.217Z,96784.97
2022-10-11T02:24:12.500Z,96788.47
2022-10-11T02:26:42.153Z,96779.50
2022-10-11T02:29:11.256Z,96777.13
2022-10-11T02:31:40.982Z,96777.44
2022-10-11T02:34:13.869Z,96779.88
2022-10-11T02:36:50.085Z,96783.53
2022-10-11T02:39:19.823Z,96778.78
2022-10-11T02:41:47.970Z,96778.28
2022-10-11T02:44:20.337Z,96782.63
2022-10-11T02:46:50.466Z,96787.16
2022-10-11T02:49:19.377Z,96785.38
2022-10-11T02:51:47.294Z,96783.63
2022-10-11T02:54:15.182Z,96788.69
2022-10-11T02:56:43.065Z,96796.53
2022-10-11T02:59:10.971Z,96784.75
2022-10-11T03:01:38.902Z,96793.16
2022-10-11T03:04:08.251Z,96792.31
2022-10-11T03:06:36.123Z,96794.63
2022-10-11T03:09:04.357Z,96790.63
2022-10-11T03:11:32.220Z,96795.47
2022-10-11T03:14:00.150Z,96796.53
2022-10-11T03:16:28.051Z,96800.97
2022-10-11T03:18:55.960Z,96804.59
2022-10-11T03:21:25.812Z,96804.63
2022-10-11T03:23:53.745Z,96805.44
2022-10-11T03:26:21.662Z,96806.97
2022-10-11T03:28:49.606Z,96806.63
2022-10-11T03:31:18.629Z,96801.06
2022-10-11T03:33:46.535Z,96808.88
2022-10-11T03:36:14.463Z,96810.94
2022-10-11T03:38:43.736Z,96803.63
2022-10-11T03:41:11.624Z,96822.56
2022-10-11T03:43:39.659Z,96813.09
2022-10-11T03:46:08.555Z,96817.94
2022-10-11T03:48:36.677Z,96818.03
2022-10-11T03:51:04.777Z,96813.81
2022-10-11T03:53:32.663Z,96822.72
2022-10-11T03:56:07.373Z,96821.22
2022-10-11T03:58:36.403Z,96816.28
2022-10-11T04:01:04.596Z,96827.53
2022-10-11T04:03:32.503Z,96824.91
2022-10-11T04:06:00.610Z,96821.63
2022-10-11T04:08:28.581Z,96829.25
2022-10-11T04:10:56.574Z,96829.41
2022-10-11T04:13:25.875Z,96827.00
2022-10-11T04:15:53.745Z,96812.19
2022-10-11T04:18:21.693Z,96831.75
2022-10-11T04:20:49.621Z,96830.78
2022-10-11T04:23:17.527Z,96831.66
2022-10-11T04:25:45.562Z,96831.97
2022-10-11T04:28:13.540Z,96839.78
2022-10-11T04:30:42.829Z,96836.63
2022-10-11T04:33:11.559Z,96841.72
2022-10-11T04:35:39.549Z,96840.22
2022-10-11T04:38:07.668Z,96842.16
2022-10-11T04:40:35.613Z,96847.41
2022-10-11T04:43:03.553Z,96839.78
2022-10-11T04:45:32.157Z,96843.25
2022-10-11T04:48:01.404Z,96837.22
2022-10-11T04:50:29.307Z,96839.25
2022-10-11T04:52:57.195Z,96843.81
2022-10-11T04:55:25.077Z,96842.00
2022-10-11T04:57:52.953Z,96843.09
2022-10-11T05:00:20.872Z,96845.72
2022-10-11T05:02:48.817Z,96843.19
2022-10-11T05:05:18.242Z,96849.72
2022-10-11T05:07:46.176Z,96852.06
2022-10-11T05:10:14.590Z,96848.63
2022-10-11T05:12:42.578Z,96848.69
2022-10-11T05:15:11.289Z,96848.94
2022-10-11T05:17:39.543Z,96850.34
2022-10-11T05:20:08.628Z,96852.31
2022-10-11T05:22:37.869Z,96845.41
2022-10-11T05:25:06.581Z,96846.06
2022-10-11T05:27:34.499Z,96843.66
2022-10-11T05:30:02.426Z,96848.28
2022-10-11T05:32:30.333Z,96853.56
2022-10-11T05:34:58.293Z,96856.50
2022-10-11T05:37:26.188Z,96858.63
2022-10-11T05:39:55.478Z,96858.56
2022-10-11T05:42:23.365Z,96863.00
2022-10-11T05:44:51.278Z,96873.03
2022-10-11T05:47:19.215Z,96872.53
2022-10-11T05:49:47.088Z,96869.75
2022-10-11T05:52:19.762Z,96869.00
2022-10-11T05:54:47.650Z,96869.97
2022-10-11T05:57:17.561Z,96880.59
2022-10-11T05:59:45.480Z,96882.03
2022-10-11T06:02:13.562Z,96875.13
2022-10-11T06:04:41.451Z,96869.59
2022-10-11T06:07:09.365Z,96868.31
2022-10-11T06:09:37.245Z,96873.97
2022-10-11T06:12:05.314Z,96878.66
2022-10-11T06:14:34.837Z,96877.13
2022-10-11T06:17:02.748Z,96882.84
2022-10-11T06:19:30.662Z,96888.78
2022-10-11T06:21:58.546Z,96893.88
2022-10-11T06:24:26.439Z,96895.72
2022-10-11T06:26:54.518Z,96897.97
2022-10-11T06:29:23.157Z,96911.38
2022-10-11T06:31:52.417Z,96908.97
2022-10-11T06:34:20.485Z,96911.47
2022-10-11T06:36:48.418Z,96905.09
2022-10-11T06:39:16.419Z,96908.06
2022-10-11T06:41:44.327Z,96912.16
2022-10-11T06:44:14.334Z,96912.72
2022-10-11T06:46:42.663Z,96922.31
2022-10-11T06:49:13.294Z,96919.41
2022-10-11T06:51:41.198Z,96922.00
2022-10-11T06:54:09.138Z,96922.84
2022-10-11T06:56:37.084Z,96925.97
2022-10-11T06:59:04.983Z,96924.22
2022-10-11T07:01:33.374Z,96931.78
2022-10-11T07:04:03.076Z,96930.47
2022-10-11T07:06:33.122Z,96934.56
2022-10-11T07:09:01.709Z,96949.22
2022-10-11T07:11:30.049Z,96943.25
2022-10-11T07:13:59.061Z,96944.53
2022-10-11T07:16:28.067Z,96948.50
2022-10-11T07:19:00.449Z,96959.16
2022-10-11T07:21:29.648Z,96957.13
2022-10-11T07:23:59.049Z,96955.69
2022-10-11T07:26:26.941Z,96956.97
2022-10-11T07:28:55.051Z,96956.34
2022-10-11T07:31:25.270Z,96957.53
2022-10-11T07:33:53.268Z,96970.06
2022-10-11T07:36:23.161Z,96970.09
2022-10-11T07:38:51.204Z,96967.06
2022-10-11T07:41:20.589Z,96970.78
2022-10-11T07:43:49.891Z,96971.06
2022-10-11T07:46:18.007Z,96963.66
2022-10-11T07:48:46.015Z,96970.97
2022-10-11T07:51:18.187Z,96967.59
2022-10-11T07:53:47.424Z,96974.53
2022-10-11T07:56:16.690Z,96969.44
2022-10-11T07:58:49.908Z,96967.78
2022-10-11T08:01:17.912Z,96972.13
2022-10-11T08:03:45.827Z,96974.06
2022-10-11T08:06:15.968Z,96973.75
2022-10-11T08:08:44.099Z,96968.97
2022-10-11T08:11:12.450Z,96967.91
2022-10-11T08:13:40.333Z,96978.44
2022-10-11T08:16:14.013Z,96967.09
2022-10-11T08:18:41.859Z,96975.97
2022-10-11T08:21:10.436Z,96973.50
2022-10-11T08:23:38.428Z,96973.91
2022-10-11T08:26:07.702Z,96971.25
2022-10-11T08:28:35.875Z,96980.00
2022-10-11T08:31:04.271Z,96972.03
2022-10-11T08:33:33.624Z,96974.16
2022-10-11T08:36:06.023Z,96985.66
2022-10-11T08:38:34.552Z,96980.78
2022-10-11T08:41:02.918Z,96987.00
2022-10-11T08:43:43.582Z,96986.75
2022-10-11T08:46:11.998Z,96986.16
2022-10-11T08:48:42.998Z,96982.59
2022-10-11T08:51:16.567Z,96991.75
2022-10-11T08:53:48.200Z,96987.06
2022-10-11T08:56:16.868Z,96988.97
2022-10-11T08:58:48.350Z,96990.19
2022-10-11T09:01:20.011Z,96995.13
2022-10-11T09:03:49.933Z,96991.44
2022-10-11T09:06:24.156Z,96993.75
2022-10-11T09:09:08.770Z,96990.06
2022-10-11T09:11:45.222Z,96995.38
2022-10-11T09:14:33.875Z,96994.63
2022-10-11T09:17:06.397Z,96971.31
2022-10-11T09:20:12.864Z,96991.91
2022-10-11T09:22:48.021Z,96998.03
2022-10-11T09:25:26.868Z,97006.84
2022-10-11T09:28:07.313Z,97005.03
2022-10-11T09:30:37.352Z,97008.31
2022-10-11T09:33:12.867Z,97008.38
2022-10-11T09:35:44.303Z,97007.25
2022-10-11T09:38:18.259Z,97004.22
2022-10-11T09:40:54.891Z,97015.69
2022-10-11T09:43:22.848Z,97014.94
2022-10-11T09:45:50.729Z,97019.84
2022-10-11T09:48:21.821Z,97017.75
2022-10-11T09:50:52.148Z,97014.78
2022-10-11T09:53:21.872Z,97027.09
2022-10-11T09:55:53.515Z,97021.22
2022-10-11T09:58:29.888Z,97013.97
2022-10-11T10:01:05.111Z,97020.78
2022-10-11T10:03:37.436Z,97029.53
2022-10-11T10:06:09.480Z,97026.38
2022-10-11T10:08:37.934Z,97024.16
2022-10-11T10:11:07.416Z,97020.06
2022-10-11T10:13:45.277Z,97028.34
2022-10-11T10:16:21.992Z,97033.88
2022-10-11T10:18:53.411Z,97035.94
2022-10-11T10:21:29.462Z,97030.59
2022-10-11T10:24:00.142Z,97034.94
2022-10-11T10:26:28.529Z,97033.09
2022-10-11T10:29:02.660Z,97036.00
2022-10-11T10:32:09.151Z,97036.19
2022-10-11T10:34:29.805Z,97032.38
2022-10-11T10:37:02.780Z,97032.13
2022-10-11T10:39:35.256Z,97036.00
2022-10-11T10:42:04.957Z,97035.28
2022-10-11T10:44:32.813Z,97038.69
2022-10-11T10:47:07.013Z,97036.72
2022-10-11T10:49:54.930Z,97037.88
2022-10-11T10:52:49.718Z,97027.91
2022-10-11T10:55:24.980Z,97036.41
2022-10-11T10:58:20.592Z,97030.09
2022-10-11T11:00:50.459Z,97030.31
2022-10-11T11:03:23.733Z,97025.88
2022-10-11T11:05:59.434Z,97031.00
2022-10-11T11:08:39.975Z,97031.00
2022-10-11T11:11:22.270Z,97030.78
2022-10-11T11:13:56.700Z,97025.41
2022-10-11T11:16:29.720Z,97032.78
2022-10-11T11:19:02.202Z,97031.25
2022-10-11T11:21:41.399Z,97034.53
2022-10-11T11:24:15.786Z,97025.78
2022-10-11T11:26:49.212Z,97026.47
2022-10-11T11:29:25.397Z,97028.06
2022-10-11T11:32:10.525Z,97025.84
2022-10-11T11:34:40.040Z,97020.22
2022-10-11T11:37:12.829Z,97029.34
2022-10-11T11:39:44.931Z,97023.38
2022-10-11T11:42:15.306Z,97009.19
2022-10-11T11:44:45.958Z,97025.13
2022-10-11T11:47:19.111Z,97025.28
2022-10-11T11:49:49.996Z,97025.41
2022-10-11T11:52:21.826Z,97023.97
2022-10-11T11:55:00.089Z,97013.63
2022-10-11T11:57:45.937Z,97020.06
2022-10-11T12:00:17.146Z,97022.16
2022-10-11T12:02:46.738Z,97020.94
2022-10-11T12:05:18.257Z,97014.22
2022-10-11T12:07:52.521Z,97009.31
2022-10-11T12:10:34.851Z,97017.50
2022-10-11T12:13:11.533Z,97016.41
2022-10-11T12:15:39.596Z,97005.94
2022-10-11T12:18:16.315Z,97009.56
2022-10-11T12:20:45.166Z,97003.91
2022-10-11T12:23:41.224Z,96999.91
2022-10-11T12:26:44.107Z,97007.97
2022-10-11T12:29:47.550Z,97012.69
2022-10-11T12:32:51.285Z,97007.53
2022-10-11T12:35:43.323Z,97002.88
2022-10-11T12:38:17.369Z,97004.28
2022-10-11T12:40:47.277Z,97008.69
2022-10-11T12:43:36.126Z,97007.03
2022-10-11T12:46:40.374Z,97004.63
2022-10-11T12:49:21.355Z,97005.72
2022-10-11T12:51:57.609Z,97001.78
2022-10-11T12:55:04.497Z,97005.28
2022-10-11T12:58:04.386Z,97000.88
2022-10-11T13:00:35.672Z,97002.03
2022-10-11T13:03:07.010Z,97006.34
2022-10-11T13:05:45.042Z,97003.69
2022-10-11T13:08:16.751Z,97002.59
2022-10-11T13:10:46.730Z,97008.31
2022-10-11T13:13:19.192Z,96997.94
2022-10-11T13:15:48.554Z,97004.03
2022-10-11T13:18:17.712Z,96997.47
2022-10-11T13:20:46.048Z,97001.56
2022-10-11T13:23:22.780Z,96996.97
2022-10-11T13:25:50.949Z,96998.44
2022-10-11T13:28:19.794Z,97000.69
2022-10-11T13:30:51.505Z,96992.00
2022-10-11T13:33:21.521Z,96999.66
2022-10-11T13:35:49.570Z,96990.88
2022-10-11T13:38:22.096Z,97001.56
2022-10-11T13:40:51.270Z,97005.56
2022-10-11T13:43:21.728Z,97012.56
2022-10-11T13:45:51.068Z,97009.97
2022-10-11T13:48:19.111Z,97014.31
2022-10-11T13:50:52.331Z,97010.94
2022-10-11T13:53:24.407Z,97006.72
2022-10-11T13:55:54.278Z,97007.66
2022-10-11T13:58:26.498Z,97002.50
2022-10-11T14:00:57.686Z,97006.56
2022-10-11T14:03:36.833Z,97002.31
2022-10-11T14:06:05.242Z,97000.13
2022-10-11T14:08:37.716Z,96996.94
2022-10-11T14:11:06.818Z,97001.78
2022-10-11T14:13:36.857Z,97001.69
2022-10-11T14:16:09.219Z,96992.88
2022-10-11T14:18:44.379Z,97006.34
2022-10-11T14:21:31.421Z,96998.50
2022-10-11T14:24:01.189Z,97004.91
2022-10-11T14:26:33.721Z,96993.44
2022-10-11T14:29:03.545Z,96994.84
2022-10-11T14:31:32.885Z,97000.56
2022-10-11T14:34:00.903Z,97003.59
2022-10-11T14:36:28.807Z,97000.56
2022-10-11T14:38:56.794Z,97003.13
2022-10-11T14:41:24.799Z,97006.91
2022-10-11T14:43:56.326Z,97007.41
2022-10-11T14:46:25.435Z,97002.84
2022-10-11T14:48:56.211Z,97007.03
2022-10-11T14:51:26.706Z,97004.75
2022-10-11T14:53:54.657Z,96995.91
2022-10-11T14:56:22.629Z,96994.69
2022-10-11T14:58:50.922Z,96999.84
2022-10-11T15:01:18.915Z,96998.41
2022-10-11T15:03:46.857Z,97002.66
2022-10-11T15:06:19.457Z,97002.22
2022-10-11T15:08:47.638Z,97003.50
2022-10-11T15:11:17.085Z,97003.72
2022-10-11T15:13:45.501Z,97005.56
2022-10-11T15:16:14.477Z,96995.84
2022-10-11T15:18:42.479Z,97000.16
2022-10-11T15:21:12.993Z,96997.50
2022-10-11T15:23:42.321Z,96997.94
2022-10-11T15:26:11.472Z,96997.94
2022-10-11T15:28:39.447Z,96984.78
2022-10-11T15:31:07.408Z,97007.69
2022-10-11T15:33:35.303Z,97002.50
2022-10-11T15:36:03.502Z,97004.13
2022-10-11T15:38:31.692Z,97002.09
2022-10-11T15:41:01.086Z,96995.31
2022-10-11T15:43:28.956Z,96994.91
2022-10-11T15:45:57.685Z,96989.72
2022-10-11T15:48:27.380Z,96998.81
2022-10-11T15:50:55.363Z,96995.28
2022-10-11T15:53:25.876Z,96992.19
2022-10-11T15:55:55.024Z,97001.78
2022-10-11T15:58:26.240Z,96998.28
2022-10-11T16:00:56.055Z,97000.34
2022-10-11T16:03:26.160Z,96992.38
2022-10-11T16:05:54.555Z,96991.16
2022-10-11T16:08:23.148Z,96994.13
2022-10-11T16:10:51.561Z,96987.13
2022-10-11T16:13:19.865Z,96992.75
2022-10-11T16:15:49.912Z,96999.88
2022-10-11T16:18:20.202Z,97004.59
2022-10-11T16:20:51.091Z,96995.94
2022-10-11T16:23:19.616Z,97003.41
2022-10-11T16:25:47.721Z,97007.19
2022-10-11T16:28:15.618Z,97005.31
2022-10-11T16:30:44.214Z,97007.88
2022-10-11T16:33:13.468Z,97006.34
2022-10-11T16:35:42.149Z,97013.94
2022-10-11T16:38:10.370Z,97015.28
2022-10-11T16:40:39.103Z,97010.66
2022-10-11T16:43:08.105Z,97013.84
2022-10-11T16:45:36.883Z,97014.03
2022-10-11T16:48:05.513Z,97008.91
2022-10-11T16:50:39.275Z,97021.72
2022-10-11T16:53:07.631Z,97027.25
2022-10-11T16:55:35.506Z,97028.06
2022-10-11T16:58:03.401Z,97032.69
2022-10-11T17:00:31.353Z,97032.38
2022-10-11T17:02:59.360Z,97037.22
2022-10-11T17:05:27.374Z,97030.94
2022-10-11T17:07:56.608Z,97033.50
2022-10-11T17:10:39.394Z,97044.78
2022-10-11T17:13:07.451Z,97042.41
2022-10-11T17:15:36.120Z,97034.31
2022-10-11T17:18:04.740Z,97029.50
2022-10-11T17:20:32.637Z,97033.06
2022-10-11T17:23:01.985Z,97038.16
2022-10-11T17:25:29.897Z,97029.56
2022-10-11T17:27:58.141Z,97035.31
2022-10-11T17:30:26.275Z,97037.03
2022-10-11T17:32:54.223Z,97033.28
2022-10-11T17:35:22.076Z,97037.13
2022-10-11T17:37:50.596Z,97030.44
2022-10-11T17:40:20.139Z,97035.50
2022-10-11T17:42:48.033Z,97033.31
2022-10-11T17:45:15.982Z,97027.84
2022-10-11T17:47:43.954Z,97028.31
2022-10-11T17:50:12.024Z,97021.38
2022-10-11T17:52:39.918Z,97031.81
2022-10-11T17:55:08.249Z,97027.78
2022-10-11T17:57:37.539Z,97034.75
2022-10-11T18:00:06.546Z,97029.31
2022-10-11T18:02:34.462Z,97026.94
2022-10-11T18:05:03.326Z,97036.22
2022-10-11T18:07:31.233Z,97023.84
2022-10-11T18:10:01.895Z,97026.72
2022-10-11T18:12:30.135Z,97007.22
2022-10-11T18:14:59.501Z,97020.78
2022-10-11T18:17:27.373Z,97025.34
2022-10-11T18:19:55.269Z,97029.09
2022-10-11T18:22:23.129Z,97028.91
2022-10-11T18:24:51.046Z,97030.09
2022-10-11T18:27:19.143Z,97022.66
2022-10-11T18:29:47.031Z,97030.09
2022-10-11T18:32:18.100Z,97032.47
2022-10-11T18:34:46.096Z,97030.28
2022-10-11T18:37:14.049Z,97026.81
2022-10-11T18:39:41.990Z,97029.72
2022-10-11T18:42:09.883Z,97028.06
2022-10-11T18:44:37.743Z,97028.00
2022-10-11T18:47:05.981Z,97024.41
2022-10-11T18:49:35.659Z,97025.78
2022-10-11T18:52:03.682Z,96989.28
2022-10-11T18:54:31.637Z,97012.31
2022-10-11T18:56:59.858Z,97021.13
2022-10-11T18:59:27.876Z,97021.84
2022-10-11T19:01:55.835Z,97020.94
2022-10-11T19:04:23.758Z,97007.97
2022-10-11T19:06:53.442Z,97021.66
2022-10-11T19:09:23.313Z,97023.88
2022-10-11T19:11:52.029Z,97023.50
2022-10-11T19:14:22.046Z,97024.25
2022-10-11T19:16:51.618Z,97027.16
2022-10-11T19:19:21.207Z,97026.81
2022-10-11T19:21:49.543Z,97027.78
2022-10-11T19:24:20.353Z,97020.03
2022-10-11T19:26:48.829Z,97019.66
2022-10-11T19:29:19.822Z,97034.13
2022-10-11T19:31:49.313Z,97031.09
2022-10-11T19:34:17.658Z,97025.78
2022-10-11T19:36:45.576Z,97031.91
2022-10-11T19:39:14.567Z,97032.63
2022-10-11T19:41:44.712Z,97028.81
2022-10-11T19:44:12.962Z,97035.22
2022-10-11T19:46:58.315Z,97033.84
2022-10-11T19:49:28.221Z,97038.31
2022-10-11T19:51:56.220Z,97037.59
2022-10-11T19:54:24.498Z,97039.78
2022-10-11T19:56:53.954Z,97038.59
2022-10-11T19:59:21.861Z,97046.00
2022-10-11T20:01:52.984Z,97046.00
2022-10-11T20:07:09.379Z,97040.53
2022-10-11T20:09:37.317Z,97042.34
2022-10-11T20:12:06.960Z,97037.34
2022-10-11T20:14:34.915Z,97034.47
2022-10-11T20:17:02.804Z,97043.25
2022-10-11T20:19:31.389Z,97044.19
2022-10-11T20:21:59.976Z,97042.88
2022-10-11T20:24:32.527Z,97045.91
2022-10-11T20:27:01.611Z,97041.44
2022-10-11T20:29:30.937Z,97037.50
2022-10-11T20:31:59.452Z,97036.50
2022-10-11T20:34:28.314Z,97030.25
2022-10-11T20:36:56.217Z,97047.97
2022-10-11T20:39:24.704Z,97045.25
2022-10-11T20:41:52.659Z,97042.69
2022-10-11T20:44:20.556Z,97045.22
2022-10-11T20:46:49.852Z,97042.19
2022-10-11T20:49:19.837Z,97037.00
2022-10-11T20:51:47.880Z,97044.16
2022-10-11T20:54:16.299Z,97043.22
2022-10-11T20:56:44.287Z,97041.66
2022-10-11T20:59:12.245Z,97042.66
2022-10-11T21:01:41.603Z,97042.69
2022-10-11T21:04:19.971Z,97046.25
2022-10-11T21:06:48.342Z,97043.41
2022-10-11T21:09:17.174Z,97043.50
2022-10-11T21:11:45.424Z,97052.91
2022-10-11T21:14:13.417Z,97044.16
2022-10-11T21:16:41.386Z,97045.25
2022-10-11T21:19:14.338Z,97046.75
2022-10-11T21:21:42.322Z,97045.63
2022-10-11T21:24:10.209Z,97045.78
2022-10-11T21:26:38.104Z,97048.66
2022-10-11T21:29:06.119Z,97055.03
2022-10-11T21:31:34.622Z,97054.25
2022-10-11T21:34:03.286Z,97060.09
2022-10-11T21:36:32.573Z,97059.91
2022-10-11T21:39:00.573Z,97059.34
2022-10-11T21:41:30.140Z,97054.03
2022-10-11T21:43:58.603Z,97049.66
2022-10-11T21:46:47.459Z,97052.41
2022-10-11T21:49:16.030Z,97047.66
2022-10-11T21:51:45.318Z,97041.97
2022-10-11T21:54:13.233Z,97050.91
2022-10-11T21:56:41.158Z,97037.41
2022-10-11T21:59:12.024Z,97048.53
2022-10-11T22:01:40.789Z,97042.44
2022-10-11T22:04:09.230Z,97037.75
2022-10-11T22:06:37.968Z,97038.31
2022-10-11T22:09:08.240Z,97037.50
2022-10-11T22:11:36.550Z,97039.31
2022-10-11T22:14:04.455Z,97035.66
2022-10-11T22:16:34.153Z,97032.28
2022-10-11T22:19:02.070Z,97035.56
2022-10-11T22:21:30.108Z,97032.47
2022-10-11T22:23:58.076Z,97031.56
2022-10-11T22:26:30.602Z,97026.16
2022-10-11T22:28:59.014Z,97026.81
2022-10-11T22:31:27.355Z,97021.13
2022-10-11T22:33:55.843Z,97025.50
2022-10-11T22:36:24.943Z,97024.59
2022-10-11T22:38:53.445Z,97028.81
2022-10-11T22:41:21.395Z,97022.31
2022-10-11T22:43:50.714Z,97024.41
2022-10-11T22:46:18.665Z,97018.22
2022-10-11T22:48:46.545Z,97021.38
2022-10-11T22:51:14.705Z,97023.69
2022-10-11T22:53:42.656Z,97012.91
2022-10-11T22:56:11.221Z,97015.09
2022-10-11T22:58:39.140Z,97013.16
2022-10-11T23:01:09.782Z,96991.13
2022-10-11T23:03:37.781Z,97012.69
2022-10-11T23:06:06.278Z,97019.66
2022-10-11T23:08:34.174Z,97018.22
2022-10-11T23:11:04.365Z,97018.75
2022-10-11T23:13:32.281Z,97012.69
2022-10-11T23:16:00.285Z,97016.00
2022-10-11T23:18:29.578Z,97022.16
2022-10-11T23:21:00.830Z,97021.38
2022-10-11T23:23:28.731Z,97023.50
2022-10-11T23:26:04.891Z,97021.31
2022-10-11T23:28:32.840Z,97031.09
2022-10-11T23:31:00.745Z,97032.28
2022-10-11T23:33:30.841Z,97026.44
2022-10-11T23:35:58.712Z,97034.38
2022-10-11T23:38:26.614Z,97032.09
2022-10-11T23:40:54.483Z,97040.16
2022-10-11T23:43:22.775Z,97037.50
2022-10-11T23:45:51.217Z,97031.91
2022-10-11T23:48:19.111Z,97036.31
2022-10-11T23:50:48.398Z,97034.00
2022-10-11T23:53:16.318Z,97028.28
2022-10-11T23:55:44.450Z,97032.56
2022-10-11T23:58:12.333Z,97015.06
